sensor_id;sensor_type;location;lat;lon;timestamp;temperature;humidity
69208;SHT31;56321;47.662;8.878;2023-03-11T00:00:08;7.10;64.47
69208;SHT31;56321;47.662;8.878;2023-03-11T00:02:38;7.11;64.39
69208;SHT31;56321;47.662;8.878;2023-03-11T00:05:04;7.13;64.35
69208;SHT31;56321;47.662;8.878;2023-03-11T00:07:29;7.10;64.37
69208;SHT31;56321;47.662;8.878;2023-03-11T00:09:55;7.09;64.53
69208;SHT31;56321;47.662;8.878;2023-03-11T00:12:20;7.07;64.83
69208;SHT31;56321;47.662;8.878;2023-03-11T00:14:46;7.10;64.79
69208;SHT31;56321;47.662;8.878;2023-03-11T00:17:11;7.09;64.78
69208;SHT31;56321;47.662;8.878;2023-03-11T00:19:36;7.09;64.55
69208;SHT31;56321;47.662;8.878;2023-03-11T00:22:02;7.09;64.66
69208;SHT31;56321;47.662;8.878;2023-03-11T00:24:27;7.07;64.62
69208;SHT31;56321;47.662;8.878;2023-03-11T00:26:52;7.07;64.51
69208;SHT31;56321;47.662;8.878;2023-03-11T00:29:17;7.07;64.64
69208;SHT31;56321;47.662;8.878;2023-03-11T00:31:43;7.06;64.48
69208;SHT31;56321;47.662;8.878;2023-03-11T00:34:08;7.02;64.48
69208;SHT31;56321;47.662;8.878;2023-03-11T00:36:34;7.02;64.54
69208;SHT31;56321;47.662;8.878;2023-03-11T00:39:00;7.02;64.53
69208;SHT31;56321;47.662;8.878;2023-03-11T00:41:27;7.00;64.56
69208;SHT31;56321;47.662;8.878;2023-03-11T00:43:53;7.03;64.61
69208;SHT31;56321;47.662;8.878;2023-03-11T00:46:18;7.03;64.46
69208;SHT31;56321;47.662;8.878;2023-03-11T00:48:43;7.02;64.45
69208;SHT31;56321;47.662;8.878;2023-03-11T00:51:13;7.03;64.64
69208;SHT31;56321;47.662;8.878;2023-03-11T00:53:40;7.06;64.71
69208;SHT31;56321;47.662;8.878;2023-03-11T00:56:13;7.04;64.70
69208;SHT31;56321;47.662;8.878;2023-03-11T00:58:39;7.09;64.78
69208;SHT31;56321;47.662;8.878;2023-03-11T01:01:09;7.09;65.00
69208;SHT31;56321;47.662;8.878;2023-03-11T01:03:34;7.10;65.01
69208;SHT31;56321;47.662;8.878;2023-03-11T01:06:00;7.09;64.92
69208;SHT31;56321;47.662;8.878;2023-03-11T01:08:25;7.10;65.16
69208;SHT31;56321;47.662;8.878;2023-03-11T01:10:51;7.11;65.41
69208;SHT31;56321;47.662;8.878;2023-03-11T01:13:17;7.10;65.38
69208;SHT31;56321;47.662;8.878;2023-03-11T01:15:43;7.14;65.62
69208;SHT31;56321;47.662;8.878;2023-03-11T01:18:08;7.11;65.56
69208;SHT31;56321;47.662;8.878;2023-03-11T01:20:36;7.10;65.62
69208;SHT31;56321;47.662;8.878;2023-03-11T01:23:01;7.10;65.83
69208;SHT31;56321;47.662;8.878;2023-03-11T01:25:27;7.09;65.89
69208;SHT31;56321;47.662;8.878;2023-03-11T01:27:52;7.06;66.02
69208;SHT31;56321;47.662;8.878;2023-03-11T01:30:23;7.07;65.68
69208;SHT31;56321;47.662;8.878;2023-03-11T01:32:50;7.06;65.66
69208;SHT31;56321;47.662;8.878;2023-03-11T01:35:18;7.07;66.17
69208;SHT31;56321;47.662;8.878;2023-03-11T01:37:43;7.06;66.25
69208;SHT31;56321;47.662;8.878;2023-03-11T01:40:15;7.07;66.29
69208;SHT31;56321;47.662;8.878;2023-03-11T01:42:41;7.11;66.20
69208;SHT31;56321;47.662;8.878;2023-03-11T01:47:51;7.10;65.71
69208;SHT31;56321;47.662;8.878;2023-03-11T01:50:16;7.10;65.52
69208;SHT31;56321;47.662;8.878;2023-03-11T01:52:42;7.10;65.87
69208;SHT31;56321;47.662;8.878;2023-03-11T01:55:09;7.11;65.63
69208;SHT31;56321;47.662;8.878;2023-03-11T01:57:35;7.09;65.64
69208;SHT31;56321;47.662;8.878;2023-03-11T02:00:08;7.11;66.07
69208;SHT31;56321;47.662;8.878;2023-03-11T02:02:46;7.10;66.36
69208;SHT31;56321;47.662;8.878;2023-03-11T02:05:12;7.10;66.18
69208;SHT31;56321;47.662;8.878;2023-03-11T02:07:38;7.09;66.38
69208;SHT31;56321;47.662;8.878;2023-03-11T02:10:05;7.07;66.40
69208;SHT31;56321;47.662;8.878;2023-03-11T02:12:33;7.09;66.53
69208;SHT31;56321;47.662;8.878;2023-03-11T02:14:59;7.07;66.41
69208;SHT31;56321;47.662;8.878;2023-03-11T02:17:26;7.06;66.43
69208;SHT31;56321;47.662;8.878;2023-03-11T02:22:26;7.03;66.65
69208;SHT31;56321;47.662;8.878;2023-03-11T02:27:41;7.06;66.46
69208;SHT31;56321;47.662;8.878;2023-03-11T02:30:12;7.03;66.40
69208;SHT31;56321;47.662;8.878;2023-03-11T02:32:37;7.00;66.50
69208;SHT31;56321;47.662;8.878;2023-03-11T02:35:05;7.02;66.40
69208;SHT31;56321;47.662;8.878;2023-03-11T02:37:30;7.00;66.17
69208;SHT31;56321;47.662;8.878;2023-03-11T02:42:47;6.96;66.50
69208;SHT31;56321;47.662;8.878;2023-03-11T02:45:15;6.95;66.42
69208;SHT31;56321;47.662;8.878;2023-03-11T02:47:42;6.92;66.47
69208;SHT31;56321;47.662;8.878;2023-03-11T02:50:11;6.90;66.26
69208;SHT31;56321;47.662;8.878;2023-03-11T02:52:38;6.88;66.23
69208;SHT31;56321;47.662;8.878;2023-03-11T02:55:04;6.86;66.27
69208;SHT31;56321;47.662;8.878;2023-03-11T02:57:29;6.85;66.61
69208;SHT31;56321;47.662;8.878;2023-03-11T02:59:55;6.86;66.44
69208;SHT31;56321;47.662;8.878;2023-03-11T03:02:20;6.86;66.64
69208;SHT31;56321;47.662;8.878;2023-03-11T03:04:45;6.86;66.73
69208;SHT31;56321;47.662;8.878;2023-03-11T03:07:11;6.83;66.78
69208;SHT31;56321;47.662;8.878;2023-03-11T03:09:36;6.85;66.56
69208;SHT31;56321;47.662;8.878;2023-03-11T03:12:02;6.82;66.57
69208;SHT31;56321;47.662;8.878;2023-03-11T03:14:28;6.82;65.68
69208;SHT31;56321;47.662;8.878;2023-03-11T03:16:53;6.76;64.54
69208;SHT31;56321;47.662;8.878;2023-03-11T03:19:19;6.73;64.52
69208;SHT31;56321;47.662;8.878;2023-03-11T03:21:44;6.75;64.65
69208;SHT31;56321;47.662;8.878;2023-03-11T03:24:10;6.73;64.48
69208;SHT31;56321;47.662;8.878;2023-03-11T03:26:36;6.72;64.10
69208;SHT31;56321;47.662;8.878;2023-03-11T03:29:02;6.69;64.18
69208;SHT31;56321;47.662;8.878;2023-03-11T03:31:27;6.71;63.77
69208;SHT31;56321;47.662;8.878;2023-03-11T03:33:53;6.68;62.95
69208;SHT31;56321;47.662;8.878;2023-03-11T03:36:18;6.67;62.73
69208;SHT31;56321;47.662;8.878;2023-03-11T03:38:43;6.65;62.33
69208;SHT31;56321;47.662;8.878;2023-03-11T03:41:09;6.61;62.32
69208;SHT31;56321;47.662;8.878;2023-03-11T03:43:37;6.61;61.84
69208;SHT31;56321;47.662;8.878;2023-03-11T03:46:03;6.58;61.05
69208;SHT31;56321;47.662;8.878;2023-03-11T03:48:29;6.55;61.29
69208;SHT31;56321;47.662;8.878;2023-03-11T03:50:55;6.51;61.07
69208;SHT31;56321;47.662;8.878;2023-03-11T03:53:20;6.52;60.98
69208;SHT31;56321;47.662;8.878;2023-03-11T03:55:46;6.48;61.04
69208;SHT31;56321;47.662;8.878;2023-03-11T03:58:12;6.49;60.94
69208;SHT31;56321;47.662;8.878;2023-03-11T04:00:38;6.48;60.78
69208;SHT31;56321;47.662;8.878;2023-03-11T04:03:04;6.48;60.90
69208;SHT31;56321;47.662;8.878;2023-03-11T04:05:29;6.48;60.97
69208;SHT31;56321;47.662;8.878;2023-03-11T04:07:55;6.45;61.04
69208;SHT31;56321;47.662;8.878;2023-03-11T04:10:20;6.46;60.84
69208;SHT31;56321;47.662;8.878;2023-03-11T04:12:45;6.45;60.83
69208;SHT31;56321;47.662;8.878;2023-03-11T04:15:11;6.45;60.77
69208;SHT31;56321;47.662;8.878;2023-03-11T04:17:37;6.46;61.03
69208;SHT31;56321;47.662;8.878;2023-03-11T04:20:03;6.44;61.60
69208;SHT31;56321;47.662;8.878;2023-03-11T04:22:31;6.42;61.45
69208;SHT31;56321;47.662;8.878;2023-03-11T04:24:56;6.40;61.44
69208;SHT31;56321;47.662;8.878;2023-03-11T04:27:21;6.38;61.04
69208;SHT31;56321;47.662;8.878;2023-03-11T04:29:47;6.37;60.88
69208;SHT31;56321;47.662;8.878;2023-03-11T04:32:12;6.33;60.89
69208;SHT31;56321;47.662;8.878;2023-03-11T04:34:37;6.35;60.68
69208;SHT31;56321;47.662;8.878;2023-03-11T04:37:03;6.31;60.09
69208;SHT31;56321;47.662;8.878;2023-03-11T04:39:28;6.34;60.19
69208;SHT31;56321;47.662;8.878;2023-03-11T04:41:54;6.33;60.24
69208;SHT31;56321;47.662;8.878;2023-03-11T04:44:19;6.31;60.29
69208;SHT31;56321;47.662;8.878;2023-03-11T04:46:44;6.30;60.03
69208;SHT31;56321;47.662;8.878;2023-03-11T04:49:10;6.25;59.63
69208;SHT31;56321;47.662;8.878;2023-03-11T04:51:35;6.27;59.52
69208;SHT31;56321;47.662;8.878;2023-03-11T04:54:00;6.27;59.93
69208;SHT31;56321;47.662;8.878;2023-03-11T04:56:25;6.27;59.49
69208;SHT31;56321;47.662;8.878;2023-03-11T04:58:51;6.27;59.78
69208;SHT31;56321;47.662;8.878;2023-03-11T05:01:16;6.23;59.60
69208;SHT31;56321;47.662;8.878;2023-03-11T05:03:41;6.20;59.18
69208;SHT31;56321;47.662;8.878;2023-03-11T05:06:07;6.20;59.26
69208;SHT31;56321;47.662;8.878;2023-03-11T05:08:32;6.18;59.46
69208;SHT31;56321;47.662;8.878;2023-03-11T05:10:57;6.14;59.10
69208;SHT31;56321;47.662;8.878;2023-03-11T05:13:23;6.14;58.88
69208;SHT31;56321;47.662;8.878;2023-03-11T05:15:48;6.10;59.08
69208;SHT31;56321;47.662;8.878;2023-03-11T05:18:13;6.13;59.12
69208;SHT31;56321;47.662;8.878;2023-03-11T05:20:39;6.11;58.73
69208;SHT31;56321;47.662;8.878;2023-03-11T05:23:04;6.10;58.76
69208;SHT31;56321;47.662;8.878;2023-03-11T05:25:30;6.07;58.74
69208;SHT31;56321;47.662;8.878;2023-03-11T05:27:55;6.07;58.83
69208;SHT31;56321;47.662;8.878;2023-03-11T05:30:21;6.07;58.87
69208;SHT31;56321;47.662;8.878;2023-03-11T05:32:47;6.02;58.79
69208;SHT31;56321;47.662;8.878;2023-03-11T05:35:13;6.03;59.03
69208;SHT31;56321;47.662;8.878;2023-03-11T05:37:38;6.03;59.42
69208;SHT31;56321;47.662;8.878;2023-03-11T05:40:05;6.02;59.53
69208;SHT31;56321;47.662;8.878;2023-03-11T05:42:32;6.00;59.29
69208;SHT31;56321;47.662;8.878;2023-03-11T05:44:57;6.00;59.36
69208;SHT31;56321;47.662;8.878;2023-03-11T05:47:23;6.00;59.62
69208;SHT31;56321;47.662;8.878;2023-03-11T05:49:48;5.99;59.31
69208;SHT31;56321;47.662;8.878;2023-03-11T05:52:14;5.99;59.55
69208;SHT31;56321;47.662;8.878;2023-03-11T05:54:39;5.95;59.89
69208;SHT31;56321;47.662;8.878;2023-03-11T05:57:05;5.95;60.17
69208;SHT31;56321;47.662;8.878;2023-03-11T05:59:30;5.93;60.09
69208;SHT31;56321;47.662;8.878;2023-03-11T06:01:57;5.93;60.01
69208;SHT31;56321;47.662;8.878;2023-03-11T06:04:23;5.92;60.14
69208;SHT31;56321;47.662;8.878;2023-03-11T06:06:48;5.90;60.43
69208;SHT31;56321;47.662;8.878;2023-03-11T06:09:14;5.89;60.04
69208;SHT31;56321;47.662;8.878;2023-03-11T06:11:40;5.86;60.22
69208;SHT31;56321;47.662;8.878;2023-03-11T06:14:05;5.86;59.75
69208;SHT31;56321;47.662;8.878;2023-03-11T06:16:31;5.85;59.52
69208;SHT31;56321;47.662;8.878;2023-03-11T06:18:56;5.83;59.85
69208;SHT31;56321;47.662;8.878;2023-03-11T06:21:24;5.83;60.08
69208;SHT31;56321;47.662;8.878;2023-03-11T06:23:50;5.82;60.08
69208;SHT31;56321;47.662;8.878;2023-03-11T06:26:18;5.79;60.08
69208;SHT31;56321;47.662;8.878;2023-03-11T06:28:44;5.80;60.22
69208;SHT31;56321;47.662;8.878;2023-03-11T06:31:13;5.80;60.33
69208;SHT31;56321;47.662;8.878;2023-03-11T06:33:39;5.80;60.01
69208;SHT31;56321;47.662;8.878;2023-03-11T06:36:05;5.76;59.69
69208;SHT31;56321;47.662;8.878;2023-03-11T06:38:32;5.75;59.80
69208;SHT31;56321;47.662;8.878;2023-03-11T06:41:01;5.75;59.50
69208;SHT31;56321;47.662;8.878;2023-03-11T06:43:28;5.73;59.30
69208;SHT31;56321;47.662;8.878;2023-03-11T06:45:53;5.73;59.50
69208;SHT31;56321;47.662;8.878;2023-03-11T06:48:19;5.73;59.35
69208;SHT31;56321;47.662;8.878;2023-03-11T06:50:55;5.72;59.53
69208;SHT31;56321;47.662;8.878;2023-03-11T06:53:21;5.75;59.36
69208;SHT31;56321;47.662;8.878;2023-03-11T06:56:16;5.75;58.84
69208;SHT31;56321;47.662;8.878;2023-03-11T06:58:42;5.76;59.34
69208;SHT31;56321;47.662;8.878;2023-03-11T07:01:15;5.75;59.73
69208;SHT31;56321;47.662;8.878;2023-03-11T07:03:41;5.72;59.84
69208;SHT31;56321;47.662;8.878;2023-03-11T07:06:12;5.68;59.87
69208;SHT31;56321;47.662;8.878;2023-03-11T07:08:38;5.65;59.62
69208;SHT31;56321;47.662;8.878;2023-03-11T07:11:07;5.62;59.80
69208;SHT31;56321;47.662;8.878;2023-03-11T07:13:33;5.60;59.73
69208;SHT31;56321;47.662;8.878;2023-03-11T07:16:10;5.58;59.93
69208;SHT31;56321;47.662;8.878;2023-03-11T07:18:37;5.58;59.99
69208;SHT31;56321;47.662;8.878;2023-03-11T07:21:04;5.56;59.61
69208;SHT31;56321;47.662;8.878;2023-03-11T07:23:30;5.56;59.88
69208;SHT31;56321;47.662;8.878;2023-03-11T07:25:56;5.59;59.61
69208;SHT31;56321;47.662;8.878;2023-03-11T07:28:23;5.63;59.12
69208;SHT31;56321;47.662;8.878;2023-03-11T07:30:48;5.65;58.39
69208;SHT31;56321;47.662;8.878;2023-03-11T07:33:14;5.69;58.90
69208;SHT31;56321;47.662;8.878;2023-03-11T07:35:40;5.69;59.43
69208;SHT31;56321;47.662;8.878;2023-03-11T07:38:06;5.68;59.36
69208;SHT31;56321;47.662;8.878;2023-03-11T07:40:31;5.70;59.26
69208;SHT31;56321;47.662;8.878;2023-03-11T07:42:57;5.69;58.84
69208;SHT31;56321;47.662;8.878;2023-03-11T07:45:22;5.68;59.32
69208;SHT31;56321;47.662;8.878;2023-03-11T07:47:48;5.69;58.26
69208;SHT31;56321;47.662;8.878;2023-03-11T07:50:13;5.60;57.35
69208;SHT31;56321;47.662;8.878;2023-03-11T07:52:38;5.59;58.13
69208;SHT31;56321;47.662;8.878;2023-03-11T07:55:04;5.59;58.67
69208;SHT31;56321;47.662;8.878;2023-03-11T07:57:29;5.60;58.31
69208;SHT31;56321;47.662;8.878;2023-03-11T07:59:55;5.58;57.43
69208;SHT31;56321;47.662;8.878;2023-03-11T08:02:20;5.55;57.18
69208;SHT31;56321;47.662;8.878;2023-03-11T08:04:45;5.56;57.55
69208;SHT31;56321;47.662;8.878;2023-03-11T08:07:11;5.55;58.34
69208;SHT31;56321;47.662;8.878;2023-03-11T08:09:36;5.58;58.62
69208;SHT31;56321;47.662;8.878;2023-03-11T08:12:01;5.63;57.69
69208;SHT31;56321;47.662;8.878;2023-03-11T08:14:27;5.65;58.02
69208;SHT31;56321;47.662;8.878;2023-03-11T08:16:52;5.68;56.96
69208;SHT31;56321;47.662;8.878;2023-03-11T08:19:17;5.68;56.95
69208;SHT31;56321;47.662;8.878;2023-03-11T08:21:43;5.65;56.85
69208;SHT31;56321;47.662;8.878;2023-03-11T08:24:10;5.66;57.17
69208;SHT31;56321;47.662;8.878;2023-03-11T08:26:36;5.65;56.97
69208;SHT31;56321;47.662;8.878;2023-03-11T08:29:02;5.70;57.27
69208;SHT31;56321;47.662;8.878;2023-03-11T08:31:30;5.69;56.69
69208;SHT31;56321;47.662;8.878;2023-03-11T08:34:02;5.69;57.04
69208;SHT31;56321;47.662;8.878;2023-03-11T08:36:28;5.72;57.14
69208;SHT31;56321;47.662;8.878;2023-03-11T08:38:54;5.79;57.08
69208;SHT31;56321;47.662;8.878;2023-03-11T08:41:19;5.83;56.30
69208;SHT31;56321;47.662;8.878;2023-03-11T08:43:45;5.86;56.59
69208;SHT31;56321;47.662;8.878;2023-03-11T08:46:28;5.85;55.79
69208;SHT31;56321;47.662;8.878;2023-03-11T08:48:55;5.80;56.14
69208;SHT31;56321;47.662;8.878;2023-03-11T08:51:21;5.82;55.87
69208;SHT31;56321;47.662;8.878;2023-03-11T08:53:47;5.83;55.63
69208;SHT31;56321;47.662;8.878;2023-03-11T08:56:12;5.89;56.15
69208;SHT31;56321;47.662;8.878;2023-03-11T08:58:37;5.96;55.55
69208;SHT31;56321;47.662;8.878;2023-03-11T09:01:04;6.06;55.69
69208;SHT31;56321;47.662;8.878;2023-03-11T09:03:31;6.20;55.31
69208;SHT31;56321;47.662;8.878;2023-03-11T09:06:01;6.34;55.03
69208;SHT31;56321;47.662;8.878;2023-03-11T09:08:27;6.48;54.90
69208;SHT31;56321;47.662;8.878;2023-03-11T09:10:53;6.62;54.55
69208;SHT31;56321;47.662;8.878;2023-03-11T09:13:18;6.75;54.06
69208;SHT31;56321;47.662;8.878;2023-03-11T09:15:43;6.85;53.80
69208;SHT31;56321;47.662;8.878;2023-03-11T09:18:16;6.85;54.18
69208;SHT31;56321;47.662;8.878;2023-03-11T09:20:42;6.83;54.75
69208;SHT31;56321;47.662;8.878;2023-03-11T09:23:08;6.81;55.24
69208;SHT31;56321;47.662;8.878;2023-03-11T09:25:34;6.85;55.68
69208;SHT31;56321;47.662;8.878;2023-03-11T09:27:59;6.92;55.53
69208;SHT31;56321;47.662;8.878;2023-03-11T09:30:25;6.97;55.42
69208;SHT31;56321;47.662;8.878;2023-03-11T09:32:50;7.00;55.36
69208;SHT31;56321;47.662;8.878;2023-03-11T09:35:15;7.06;55.20
69208;SHT31;56321;47.662;8.878;2023-03-11T09:37:41;7.07;54.86
69208;SHT31;56321;47.662;8.878;2023-03-11T09:40:09;7.07;55.24
69208;SHT31;56321;47.662;8.878;2023-03-11T09:42:56;7.14;54.66
69208;SHT31;56321;47.662;8.878;2023-03-11T09:45:31;7.24;55.26
69208;SHT31;56321;47.662;8.878;2023-03-11T09:50:37;7.38;54.71
69208;SHT31;56321;47.662;8.878;2023-03-11T09:56:06;7.51;53.50
69208;SHT31;56321;47.662;8.878;2023-03-11T09:58:53;7.50;53.86
69208;SHT31;56321;47.662;8.878;2023-03-11T10:01:24;7.57;54.15
69208;SHT31;56321;47.662;8.878;2023-03-11T10:03:54;7.51;54.06
69208;SHT31;56321;47.662;8.878;2023-03-11T10:06:22;7.50;54.24
69208;SHT31;56321;47.662;8.878;2023-03-11T10:08:56;7.55;54.73
69208;SHT31;56321;47.662;8.878;2023-03-11T10:11:36;7.65;53.92
69208;SHT31;56321;47.662;8.878;2023-03-11T10:16:55;8.84;53.37
69208;SHT31;56321;47.662;8.878;2023-03-11T10:19:43;9.51;50.76
69208;SHT31;56321;47.662;8.878;2023-03-11T10:22:26;9.84;48.81
69208;SHT31;56321;47.662;8.878;2023-03-11T10:25:07;10.01;49.60
69208;SHT31;56321;47.662;8.878;2023-03-11T10:30:20;10.15;49.41
69208;SHT31;56321;47.662;8.878;2023-03-11T10:32:57;10.28;48.91
69208;SHT31;56321;47.662;8.878;2023-03-11T10:35:33;10.33;48.13
69208;SHT31;56321;47.662;8.878;2023-03-11T10:38:06;10.49;48.01
69208;SHT31;56321;47.662;8.878;2023-03-11T10:40:38;10.66;47.31
69208;SHT31;56321;47.662;8.878;2023-03-11T10:43:15;11.14;45.49
69208;SHT31;56321;47.662;8.878;2023-03-11T10:45:42;11.94;46.05
69208;SHT31;56321;47.662;8.878;2023-03-11T10:48:12;12.67;44.66
69208;SHT31;56321;47.662;8.878;2023-03-11T10:53:30;13.35;42.58
69208;SHT31;56321;47.662;8.878;2023-03-11T10:55:57;13.70;43.42
69208;SHT31;56321;47.662;8.878;2023-03-11T10:58:28;14.33;43.10
69208;SHT31;56321;47.662;8.878;2023-03-11T11:03:29;15.12;41.04
69208;SHT31;56321;47.662;8.878;2023-03-11T11:06:06;15.85;39.97
69208;SHT31;56321;47.662;8.878;2023-03-11T11:08:33;16.66;41.01
69208;SHT31;56321;47.662;8.878;2023-03-11T11:11:01;17.66;39.32
69208;SHT31;56321;47.662;8.878;2023-03-11T11:13:31;18.46;38.22
69208;SHT31;56321;47.662;8.878;2023-03-11T11:16:01;19.58;35.89
69208;SHT31;56321;47.662;8.878;2023-03-11T11:18:30;19.82;35.12
69208;SHT31;56321;47.662;8.878;2023-03-11T11:23:26;19.51;34.88
69208;SHT31;56321;47.662;8.878;2023-03-11T11:25:57;20.41;33.64
69208;SHT31;56321;47.662;8.878;2023-03-11T11:28:23;21.55;32.85
69208;SHT31;56321;47.662;8.878;2023-03-11T11:30:58;22.40;30.39
69208;SHT31;56321;47.662;8.878;2023-03-11T11:33:25;23.25;30.33
69208;SHT31;56321;47.662;8.878;2023-03-11T11:35:54;24.14;28.74
69208;SHT31;56321;47.662;8.878;2023-03-11T11:38:22;24.73;27.77
69208;SHT31;56321;47.662;8.878;2023-03-11T11:40:51;24.96;28.01
69208;SHT31;56321;47.662;8.878;2023-03-11T11:43:19;24.94;27.50
69208;SHT31;56321;47.662;8.878;2023-03-11T11:45:58;24.80;26.92
69208;SHT31;56321;47.662;8.878;2023-03-11T11:48:46;24.59;24.49
69208;SHT31;56321;47.662;8.878;2023-03-11T11:51:20;24.15;25.53
69208;SHT31;56321;47.662;8.878;2023-03-11T11:53:49;23.77;27.19
69208;SHT31;56321;47.662;8.878;2023-03-11T11:56:16;23.41;27.32
69208;SHT31;56321;47.662;8.878;2023-03-11T11:58:41;22.90;27.24
69208;SHT31;56321;47.662;8.878;2023-03-11T12:01:27;21.92;26.18
69208;SHT31;56321;47.662;8.878;2023-03-11T12:09:21;19.22;30.04
69208;SHT31;56321;47.662;8.878;2023-03-11T12:12:06;18.27;29.71
69208;SHT31;56321;47.662;8.878;2023-03-11T12:17:34;16.46;32.75
69208;SHT31;56321;47.662;8.878;2023-03-11T12:20:10;15.55;32.99
69208;SHT31;56321;47.662;8.878;2023-03-11T12:27:43;13.78;36.01
69208;SHT31;56321;47.662;8.878;2023-03-11T12:30:32;13.25;37.44
69208;SHT31;56321;47.662;8.878;2023-03-11T12:33:04;13.00;37.96
69208;SHT31;56321;47.662;8.878;2023-03-11T12:35:32;12.83;37.84
69208;SHT31;56321;47.662;8.878;2023-03-11T12:38:17;12.67;39.01
69208;SHT31;56321;47.662;8.878;2023-03-11T12:40:59;12.53;38.34
69208;SHT31;56321;47.662;8.878;2023-03-11T12:45:59;11.84;38.95
69208;SHT31;56321;47.662;8.878;2023-03-11T12:53:50;11.18;40.28
69208;SHT31;56321;47.662;8.878;2023-03-11T12:59:29;11.01;41.63
69208;SHT31;56321;47.662;8.878;2023-03-11T13:07:50;10.84;43.17
69208;SHT31;56321;47.662;8.878;2023-03-11T13:12:47;10.97;42.93
69208;SHT31;56321;47.662;8.878;2023-03-11T13:25:43;11.43;42.91
69208;SHT31;56321;47.662;8.878;2023-03-11T13:28:48;11.44;43.40
69208;SHT31;56321;47.662;8.878;2023-03-11T13:31:19;11.53;43.41
69208;SHT31;56321;47.662;8.878;2023-03-11T13:33:53;11.43;43.01
69208;SHT31;56321;47.662;8.878;2023-03-11T13:39:00;11.28;43.84
69208;SHT31;56321;47.662;8.878;2023-03-11T13:41:36;11.14;43.91
69208;SHT31;56321;47.662;8.878;2023-03-11T13:44:35;10.94;44.76
69208;SHT31;56321;47.662;8.878;2023-03-11T13:47:12;10.91;44.57
69208;SHT31;56321;47.662;8.878;2023-03-11T13:52:25;10.94;45.76
69208;SHT31;56321;47.662;8.878;2023-03-11T13:55:01;11.02;45.31
69208;SHT31;56321;47.662;8.878;2023-03-11T13:57:30;11.11;45.33
69208;SHT31;56321;47.662;8.878;2023-03-11T13:59:56;11.18;45.28
69208;SHT31;56321;47.662;8.878;2023-03-11T14:02:26;11.21;45.28
69208;SHT31;56321;47.662;8.878;2023-03-11T14:05:15;11.18;45.37
69208;SHT31;56321;47.662;8.878;2023-03-11T14:07:41;11.10;45.15
69208;SHT31;56321;47.662;8.878;2023-03-11T14:12:38;10.91;45.75
69208;SHT31;56321;47.662;8.878;2023-03-11T14:15:06;10.88;45.53
69208;SHT31;56321;47.662;8.878;2023-03-11T14:17:32;10.84;45.98
69208;SHT31;56321;47.662;8.878;2023-03-11T14:20:15;10.84;46.17
69208;SHT31;56321;47.662;8.878;2023-03-11T14:22:48;10.78;46.05
69208;SHT31;56321;47.662;8.878;2023-03-11T14:25:26;10.74;46.13
69208;SHT31;56321;47.662;8.878;2023-03-11T14:27:54;10.68;46.77
69208;SHT31;56321;47.662;8.878;2023-03-11T14:30:26;10.60;46.84
69208;SHT31;56321;47.662;8.878;2023-03-11T14:33:03;10.56;46.80
69208;SHT31;56321;47.662;8.878;2023-03-11T14:35:30;10.49;47.10
69208;SHT31;56321;47.662;8.878;2023-03-11T14:37:57;10.42;47.33
69208;SHT31;56321;47.662;8.878;2023-03-11T14:40:30;10.30;47.92
69208;SHT31;56321;47.662;8.878;2023-03-11T14:43:00;10.25;48.03
69208;SHT31;56321;47.662;8.878;2023-03-11T14:45:29;10.16;48.37
69208;SHT31;56321;47.662;8.878;2023-03-11T14:48:26;10.06;48.92
69208;SHT31;56321;47.662;8.878;2023-03-11T14:50:55;10.02;48.72
69208;SHT31;56321;47.662;8.878;2023-03-11T14:53:23;9.95;49.02
69208;SHT31;56321;47.662;8.878;2023-03-11T14:55:50;9.92;49.23
69208;SHT31;56321;47.662;8.878;2023-03-11T14:58:35;9.84;49.72
69208;SHT31;56321;47.662;8.878;2023-03-11T15:03:40;9.70;50.06
69208;SHT31;56321;47.662;8.878;2023-03-11T15:06:16;9.67;49.94
69208;SHT31;56321;47.662;8.878;2023-03-11T15:08:45;9.64;49.85
69208;SHT31;56321;47.662;8.878;2023-03-11T15:13:38;9.67;50.09
69208;SHT31;56321;47.662;8.878;2023-03-11T15:16:06;9.65;49.96
69208;SHT31;56321;47.662;8.878;2023-03-11T15:18:36;9.61;50.10
69208;SHT31;56321;47.662;8.878;2023-03-11T15:21:05;9.55;49.99
69208;SHT31;56321;47.662;8.878;2023-03-11T15:23:33;9.52;50.36
69208;SHT31;56321;47.662;8.878;2023-03-11T15:25:59;9.48;50.26
69208;SHT31;56321;47.662;8.878;2023-03-11T15:28:29;9.40;50.48
69208;SHT31;56321;47.662;8.878;2023-03-11T15:33:45;9.33;50.83
69208;SHT31;56321;47.662;8.878;2023-03-11T15:36:29;9.24;51.86
69208;SHT31;56321;47.662;8.878;2023-03-11T15:39:11;9.18;51.34
69208;SHT31;56321;47.662;8.878;2023-03-11T15:41:39;9.11;51.35
69208;SHT31;56321;47.662;8.878;2023-03-11T15:44:04;9.05;50.93
69208;SHT31;56321;47.662;8.878;2023-03-11T15:46:32;8.93;50.84
69208;SHT31;56321;47.662;8.878;2023-03-11T15:48:58;8.86;51.25
69208;SHT31;56321;47.662;8.878;2023-03-11T15:51:23;8.84;51.39
69208;SHT31;56321;47.662;8.878;2023-03-11T15:53:48;8.79;51.60
69208;SHT31;56321;47.662;8.878;2023-03-11T15:56:20;8.78;51.86
69208;SHT31;56321;47.662;8.878;2023-03-11T15:58:46;8.81;52.83
69208;SHT31;56321;47.662;8.878;2023-03-11T16:01:11;8.78;52.65
69208;SHT31;56321;47.662;8.878;2023-03-11T16:03:37;8.78;52.78
69208;SHT31;56321;47.662;8.878;2023-03-11T16:06:03;8.79;52.61
69208;SHT31;56321;47.662;8.878;2023-03-11T16:08:28;8.78;52.58
69208;SHT31;56321;47.662;8.878;2023-03-11T16:10:53;8.71;52.78
69208;SHT31;56321;47.662;8.878;2023-03-11T16:13:19;8.69;53.18
69208;SHT31;56321;47.662;8.878;2023-03-11T16:15:44;8.71;53.34
69208;SHT31;56321;47.662;8.878;2023-03-11T16:18:11;8.74;53.41
69208;SHT31;56321;47.662;8.878;2023-03-11T16:20:44;8.74;53.67
69208;SHT31;56321;47.662;8.878;2023-03-11T16:23:17;8.72;53.94
69208;SHT31;56321;47.662;8.878;2023-03-11T16:25:44;8.71;54.00
69208;SHT31;56321;47.662;8.878;2023-03-11T16:28:12;8.74;54.10
69208;SHT31;56321;47.662;8.878;2023-03-11T16:30:38;8.67;54.04
69208;SHT31;56321;47.662;8.878;2023-03-11T16:33:04;8.65;54.05
69208;SHT31;56321;47.662;8.878;2023-03-11T16:35:29;8.54;54.17
69208;SHT31;56321;47.662;8.878;2023-03-11T16:37:55;8.50;54.40
69208;SHT31;56321;47.662;8.878;2023-03-11T16:40:22;8.44;54.46
69208;SHT31;56321;47.662;8.878;2023-03-11T16:43:01;8.38;54.65
69208;SHT31;56321;47.662;8.878;2023-03-11T16:45:26;8.36;54.52
69208;SHT31;56321;47.662;8.878;2023-03-11T16:47:52;8.27;54.74
69208;SHT31;56321;47.662;8.878;2023-03-11T16:50:17;8.23;55.20
69208;SHT31;56321;47.662;8.878;2023-03-11T16:52:45;8.20;55.43
69208;SHT31;56321;47.662;8.878;2023-03-11T16:55:10;8.16;55.57
69208;SHT31;56321;47.662;8.878;2023-03-11T16:57:36;8.14;55.86
69208;SHT31;56321;47.662;8.878;2023-03-11T17:00:05;8.09;56.01
69208;SHT31;56321;47.662;8.878;2023-03-11T17:02:31;8.07;55.95
69208;SHT31;56321;47.662;8.878;2023-03-11T17:04:57;8.03;55.99
69208;SHT31;56321;47.662;8.878;2023-03-11T17:07:22;7.99;56.05
69208;SHT31;56321;47.662;8.878;2023-03-11T17:09:48;7.93;56.04
69208;SHT31;56321;47.662;8.878;2023-03-11T17:12:14;7.86;56.44
69208;SHT31;56321;47.662;8.878;2023-03-11T17:14:42;7.82;56.68
69208;SHT31;56321;47.662;8.878;2023-03-11T17:17:07;7.81;56.93